sensor_id;sensor_type;location;lat;lon;timestamp;temperature;humidity
10848;DHT22;5477;48.806;9.154;2022-10-30T00:01:28;14.30;99.90
10848;DHT22;5477;48.806;9.154;2022-10-30T00:03:56;14.30;99.90
10848;DHT22;5477;48.806;9.154;2022-10-30T00:06:24;14.30;99.90
10848;DHT22;5477;48.806;9.154;2022-10-30T00:08:52;14.30;99.90
10848;DHT22;5477;48.806;9.154;2022-10-30T00:11:20;14.20;99.90
10848;DHT22;5477;48.806;9.154;2022-10-30T00:13:48;14.20;99.90
10848;DHT22;5477;48.806;9.154;2022-10-30T00:16:17;14.20;99.90
10848;DHT22;5477;48.806;9.154;2022-10-30T00:18:45;14.20;99.90
10848;DHT22;5477;48.806;9.154;2022-10-30T00:21:14;14.20;99.90
10848;DHT22;5477;48.806;9.154;2022-10-30T00:23:44;14.10;99.90
10848;DHT22;5477;48.806;9.154;2022-10-30T00:26:13;14.10;99.90
10848;DHT22;5477;48.806;9.154;2022-10-30T00:28:41;14.10;99.90
10848;DHT22;5477;48.806;9.154;2022-10-30T00:31:09;14.10;99.90
10848;DHT22;5477;48.806;9.154;2022-10-30T00:33:39;14.10;99.90
10848;DHT22;5477;48.806;9.154;2022-10-30T00:36:07;14.10;99.90
10848;DHT22;5477;48.806;9.154;2022-10-30T00:38:36;14.10;99.90
10848;DHT22;5477;48.806;9.154;2022-10-30T00:41:04;14.10;99.90
10848;DHT22;5477;48.806;9.154;2022-10-30T00:43:33;14.10;99.90
10848;DHT22;5477;48.806;9.154;2022-10-30T00:46:06;14.10;99.90
10848;DHT22;5477;48.806;9.154;2022-10-30T00:48:35;14.20;99.90
10848;DHT22;5477;48.806;9.154;2022-10-30T00:51:07;14.20;99.90
10848;DHT22;5477;48.806;9.154;2022-10-30T00:53:38;14.20;99.90
10848;DHT22;5477;48.806;9.154;2022-10-30T00:56:08;14.30;99.90
10848;DHT22;5477;48.806;9.154;2022-10-30T00:58:41;14.30;99.90
10848;DHT22;5477;48.806;9.154;2022-10-30T01:01:13;14.40;99.90
10848;DHT22;5477;48.806;9.154;2022-10-30T01:03:43;14.30;99.90
10848;DHT22;5477;48.806;9.154;2022-10-30T01:06:15;14.40;99.90
10848;DHT22;5477;48.806;9.154;2022-10-30T01:08:44;14.50;99.90
10848;DHT22;5477;48.806;9.154;2022-10-30T01:11:12;14.40;99.90
10848;DHT22;5477;48.806;9.154;2022-10-30T01:13:42;14.40;99.90
10848;DHT22;5477;48.806;9.154;2022-10-30T01:16:24;14.30;99.90
10848;DHT22;5477;48.806;9.154;2022-10-30T01:19:00;14.30;99.90
10848;DHT22;5477;48.806;9.154;2022-10-30T01:21:41;14.30;99.90
10848;DHT22;5477;48.806;9.154;2022-10-30T01:24:28;14.20;99.90
10848;DHT22;5477;48.806;9.154;2022-10-30T01:27:08;14.10;99.90
10848;DHT22;5477;48.806;9.154;2022-10-30T01:29:51;14.10;99.90
10848;DHT22;5477;48.806;9.154;2022-10-30T01:32:32;14.10;99.90
10848;DHT22;5477;48.806;9.154;2022-10-30T01:35:04;14.10;99.90
10848;DHT22;5477;48.806;9.154;2022-10-30T01:37:44;14.00;99.90
10848;DHT22;5477;48.806;9.154;2022-10-30T01:40:16;14.00;99.90
10848;DHT22;5477;48.806;9.154;2022-10-30T01:42:49;13.90;99.90
10848;DHT22;5477;48.806;9.154;2022-10-30T01:45:41;13.90;99.90
10848;DHT22;5477;48.806;9.154;2022-10-30T01:48:26;14.00;99.90
10848;DHT22;5477;48.806;9.154;2022-10-30T01:51:08;14.10;99.90
10848;DHT22;5477;48.806;9.154;2022-10-30T01:53:51;14.10;99.90
10848;DHT22;5477;48.806;9.154;2022-10-30T01:56:27;14.20;99.90
10848;DHT22;5477;48.806;9.154;2022-10-30T01:59:07;14.20;99.90
10848;DHT22;5477;48.806;9.154;2022-10-30T02:01:38;14.20;99.90
10848;DHT22;5477;48.806;9.154;2022-10-30T02:04:08;14.20;99.90
10848;DHT22;5477;48.806;9.154;2022-10-30T02:06:38;14.10;99.90
10848;DHT22;5477;48.806;9.154;2022-10-30T02:09:09;14.00;99.90
10848;DHT22;5477;48.806;9.154;2022-10-30T02:11:45;13.90;99.90
10848;DHT22;5477;48.806;9.154;2022-10-30T02:14:18;13.80;99.90
10848;DHT22;5477;48.806;9.154;2022-10-30T02:16:50;13.80;99.90
10848;DHT22;5477;48.806;9.154;2022-10-30T02:19:19;13.80;99.90
10848;DHT22;5477;48.806;9.154;2022-10-30T02:21:48;13.80;99.90
10848;DHT22;5477;48.806;9.154;2022-10-30T02:24:17;13.80;99.90
10848;DHT22;5477;48.806;9.154;2022-10-30T02:26:45;13.90;99.90
10848;DHT22;5477;48.806;9.154;2022-10-30T02:29:13;13.80;99.90
10848;DHT22;5477;48.806;9.154;2022-10-30T02:31:41;13.80;99.90
10848;DHT22;5477;48.806;9.154;2022-10-30T02:34:09;13.70;99.90
10848;DHT22;5477;48.806;9.154;2022-10-30T02:36:37;13.80;99.90
10848;DHT22;5477;48.806;9.154;2022-10-30T02:39:07;13.80;99.90
10848;DHT22;5477;48.806;9.154;2022-10-30T02:41:35;13.80;99.90
10848;DHT22;5477;48.806;9.154;2022-10-30T02:44:04;13.90;99.90
10848;DHT22;5477;48.806;9.154;2022-10-30T02:46:32;13.90;99.90
10848;DHT22;5477;48.806;9.154;2022-10-30T02:49:00;13.90;99.90
10848;DHT22;5477;48.806;9.154;2022-10-30T02:51:30;13.90;99.90
10848;DHT22;5477;48.806;9.154;2022-10-30T02:53:58;13.80;99.90
10848;DHT22;5477;48.806;9.154;2022-10-30T02:56:29;13.80;99.90
10848;DHT22;5477;48.806;9.154;2022-10-30T02:58:58;13.70;99.90
10848;DHT22;5477;48.806;9.154;2022-10-30T03:01:27;13.70;99.90
10848;DHT22;5477;48.806;9.154;2022-10-30T03:03:57;13.80;99.90
10848;DHT22;5477;48.806;9.154;2022-10-30T03:06:25;13.90;99.90
10848;DHT22;5477;48.806;9.154;2022-10-30T03:08:56;13.90;99.90
10848;DHT22;5477;48.806;9.154;2022-10-30T03:11:24;13.80;99.90
10848;DHT22;5477;48.806;9.154;2022-10-30T03:13:55;13.70;99.90
10848;DHT22;5477;48.806;9.154;2022-10-30T03:16:25;13.70;99.90
10848;DHT22;5477;48.806;9.154;2022-10-30T03:18:55;13.70;99.90
10848;DHT22;5477;48.806;9.154;2022-10-30T03:21:25;13.60;99.90
10848;DHT22;5477;48.806;9.154;2022-10-30T03:23:54;13.60;99.90
10848;DHT22;5477;48.806;9.154;2022-10-30T03:26:22;13.60;99.90
10848;DHT22;5477;48.806;9.154;2022-10-30T03:28:56;13.50;99.90
10848;DHT22;5477;48.806;9.154;2022-10-30T03:31:24;13.40;99.90
10848;DHT22;5477;48.806;9.154;2022-10-30T03:34:07;13.30;99.90
10848;DHT22;5477;48.806;9.154;2022-10-30T03:36:35;13.20;99.90
10848;DHT22;5477;48.806;9.154;2022-10-30T03:39:03;13.20;99.90
10848;DHT22;5477;48.806;9.154;2022-10-30T03:41:32;13.40;99.90
10848;DHT22;5477;48.806;9.154;2022-10-30T03:44:01;13.40;99.90
10848;DHT22;5477;48.806;9.154;2022-10-30T03:46:29;13.30;99.90
10848;DHT22;5477;48.806;9.154;2022-10-30T03:49:11;13.20;99.90
10848;DHT22;5477;48.806;9.154;2022-10-30T03:51:39;13.20;99.90
10848;DHT22;5477;48.806;9.154;2022-10-30T03:54:06;13.20;99.90
10848;DHT22;5477;48.806;9.154;2022-10-30T03:56:35;13.20;99.90
10848;DHT22;5477;48.806;9.154;2022-10-30T03:59:04;13.10;99.90
10848;DHT22;5477;48.806;9.154;2022-10-30T04:01:36;13.00;99.90
10848;DHT22;5477;48.806;9.154;2022-10-30T04:04:05;12.90;99.90
10848;DHT22;5477;48.806;9.154;2022-10-30T04:06:33;12.90;99.90
10848;DHT22;5477;48.806;9.154;2022-10-30T04:09:01;12.90;99.90
10848;DHT22;5477;48.806;9.154;2022-10-30T04:11:34;12.90;99.90
10848;DHT22;5477;48.806;9.154;2022-10-30T04:14:04;12.80;99.90
10848;DHT22;5477;48.806;9.154;2022-10-30T04:16:32;12.90;99.90
10848;DHT22;5477;48.806;9.154;2022-10-30T04:19:01;12.90;99.90
10848;DHT22;5477;48.806;9.154;2022-10-30T04:21:30;12.90;99.90
10848;DHT22;5477;48.806;9.154;2022-10-30T04:23:57;12.80;99.90
10848;DHT22;5477;48.806;9.154;2022-10-30T04:26:29;12.80;99.90
10848;DHT22;5477;48.806;9.154;2022-10-30T04:28:56;12.70;99.90
10848;DHT22;5477;48.806;9.154;2022-10-30T04:31:26;12.70;99.90
10848;DHT22;5477;48.806;9.154;2022-10-30T04:33:54;12.60;99.90
10848;DHT22;5477;48.806;9.154;2022-10-30T04:36:22;12.60;99.90
10848;DHT22;5477;48.806;9.154;2022-10-30T04:38:56;12.50;99.90
10848;DHT22;5477;48.806;9.154;2022-10-30T04:41:26;12.50;99.90
10848;DHT22;5477;48.806;9.154;2022-10-30T04:44:03;12.50;99.90
10848;DHT22;5477;48.806;9.154;2022-10-30T04:46:33;12.50;99.90
10848;DHT22;5477;48.806;9.154;2022-10-30T04:49:07;12.40;99.90
10848;DHT22;5477;48.806;9.154;2022-10-30T04:51:35;12.30;99.90
10848;DHT22;5477;48.806;9.154;2022-10-30T04:54:05;12.30;99.90
10848;DHT22;5477;48.806;9.154;2022-10-30T04:56:35;12.20;99.90
10848;DHT22;5477;48.806;9.154;2022-10-30T04:59:03;12.20;99.90
10848;DHT22;5477;48.806;9.154;2022-10-30T05:01:32;12.20;99.90
10848;DHT22;5477;48.806;9.154;2022-10-30T05:04:02;12.20;99.90
10848;DHT22;5477;48.806;9.154;2022-10-30T05:06:31;12.20;99.90
10848;DHT22;5477;48.806;9.154;2022-10-30T05:09:00;12.20;99.90
10848;DHT22;5477;48.806;9.154;2022-10-30T05:11:33;12.20;99.90
10848;DHT22;5477;48.806;9.154;2022-10-30T05:14:01;12.20;99.90
10848;DHT22;5477;48.806;9.154;2022-10-30T05:16:29;12.20;99.90
10848;DHT22;5477;48.806;9.154;2022-10-30T05:19:01;12.30;99.90
10848;DHT22;5477;48.806;9.154;2022-10-30T05:21:29;12.30;99.90
10848;DHT22;5477;48.806;9.154;2022-10-30T05:23:57;12.30;99.90
10848;DHT22;5477;48.806;9.154;2022-10-30T05:26:28;12.30;99.90
10848;DHT22;5477;48.806;9.154;2022-10-30T05:28:55;12.30;99.90
10848;DHT22;5477;48.806;9.154;2022-10-30T05:31:23;12.30;99.90
10848;DHT22;5477;48.806;9.154;2022-10-30T05:34:11;12.40;99.90
10848;DHT22;5477;48.806;9.154;2022-10-30T05:36:40;12.30;99.90
10848;DHT22;5477;48.806;9.154;2022-10-30T05:39:10;12.30;99.90
10848;DHT22;5477;48.806;9.154;2022-10-30T05:41:42;12.30;99.90
10848;DHT22;5477;48.806;9.154;2022-10-30T05:44:10;12.30;99.90
10848;DHT22;5477;48.806;9.154;2022-10-30T05:46:40;12.30;99.90
10848;DHT22;5477;48.806;9.154;2022-10-30T05:49:25;12.30;99.90
10848;DHT22;5477;48.806;9.154;2022-10-30T05:51:53;12.30;99.90
10848;DHT22;5477;48.806;9.154;2022-10-30T05:54:21;12.20;99.90
10848;DHT22;5477;48.806;9.154;2022-10-30T05:57:01;12.10;99.90
10848;DHT22;5477;48.806;9.154;2022-10-30T05:59:32;12.10;99.90
10848;DHT22;5477;48.806;9.154;2022-10-30T06:02:01;12.10;99.90
10848;DHT22;5477;48.806;9.154;2022-10-30T06:04:31;12.00;99.90
10848;DHT22;5477;48.806;9.154;2022-10-30T06:07:02;11.90;99.90
10848;DHT22;5477;48.806;9.154;2022-10-30T06:09:30;11.90;99.90
10848;DHT22;5477;48.806;9.154;2022-10-30T06:11:58;11.80;99.90
10848;DHT22;5477;48.806;9.154;2022-10-30T06:14:44;11.80;99.90
10848;DHT22;5477;48.806;9.154;2022-10-30T06:17:12;11.80;99.90
10848;DHT22;5477;48.806;9.154;2022-10-30T06:20:00;11.90;99.90
10848;DHT22;5477;48.806;9.154;2022-10-30T06:22:52;11.90;99.90
10848;DHT22;5477;48.806;9.154;2022-10-30T06:25:25;11.90;99.90
10848;DHT22;5477;48.806;9.154;2022-10-30T06:28:06;11.90;99.90
10848;DHT22;5477;48.806;9.154;2022-10-30T06:30:34;11.80;99.90
10848;DHT22;5477;48.806;9.154;2022-10-30T06:33:03;11.90;99.90
10848;DHT22;5477;48.806;9.154;2022-10-30T06:35:34;11.90;99.90
10848;DHT22;5477;48.806;9.154;2022-10-30T06:38:03;11.80;99.90
10848;DHT22;5477;48.806;9.154;2022-10-30T06:40:34;11.80;99.90
10848;DHT22;5477;48.806;9.154;2022-10-30T06:43:20;11.80;99.90
10848;DHT22;5477;48.806;9.154;2022-10-30T06:45:56;11.90;99.90
10848;DHT22;5477;48.806;9.154;2022-10-30T06:48:25;12.00;99.90
10848;DHT22;5477;48.806;9.154;2022-10-30T06:50:56;12.10;99.90
10848;DHT22;5477;48.806;9.154;2022-10-30T06:53:25;12.20;99.90
10848;DHT22;5477;48.806;9.154;2022-10-30T06:56:06;12.20;99.90
10848;DHT22;5477;48.806;9.154;2022-10-30T06:58:41;12.20;99.90
10848;DHT22;5477;48.806;9.154;2022-10-30T07:01:19;12.20;99.90
10848;DHT22;5477;48.806;9.154;2022-10-30T07:04:06;12.30;99.90
10848;DHT22;5477;48.806;9.154;2022-10-30T07:06:36;12.30;99.90
10848;DHT22;5477;48.806;9.154;2022-10-30T07:09:03;12.30;99.90
10848;DHT22;5477;48.806;9.154;2022-10-30T07:11:32;12.30;99.90
10848;DHT22;5477;48.806;9.154;2022-10-30T07:14:14;12.40;99.90
10848;DHT22;5477;48.806;9.154;2022-10-30T07:17:11;12.50;99.90
10848;DHT22;5477;48.806;9.154;2022-10-30T07:19:43;12.50;99.90
10848;DHT22;5477;48.806;9.154;2022-10-30T07:22:12;12.60;99.90
10848;DHT22;5477;48.806;9.154;2022-10-30T07:24:43;12.70;99.90
10848;DHT22;5477;48.806;9.154;2022-10-30T07:27:26;12.80;99.90
10848;DHT22;5477;48.806;9.154;2022-10-30T07:30:10;12.80;99.90
10848;DHT22;5477;48.806;9.154;2022-10-30T07:32:57;12.90;99.90
10848;DHT22;5477;48.806;9.154;2022-10-30T07:35:44;12.90;99.90
10848;DHT22;5477;48.806;9.154;2022-10-30T07:38:27;13.00;99.90
10848;DHT22;5477;48.806;9.154;2022-10-30T07:41:05;13.10;99.90
10848;DHT22;5477;48.806;9.154;2022-10-30T07:43:41;13.20;99.90
10848;DHT22;5477;48.806;9.154;2022-10-30T07:46:28;13.40;99.90
10848;DHT22;5477;48.806;9.154;2022-10-30T07:49:16;13.50;99.90
10848;DHT22;5477;48.806;9.154;2022-10-30T07:51:48;13.60;99.90
10848;DHT22;5477;48.806;9.154;2022-10-30T07:54:18;13.90;99.90
10848;DHT22;5477;48.806;9.154;2022-10-30T07:56:47;14.10;99.90
10848;DHT22;5477;48.806;9.154;2022-10-30T07:59:14;14.20;99.90
10848;DHT22;5477;48.806;9.154;2022-10-30T08:02:01;14.30;99.90
10848;DHT22;5477;48.806;9.154;2022-10-30T08:05:02;14.60;99.90
10848;DHT22;5477;48.806;9.154;2022-10-30T08:07:50;14.80;99.90
10848;DHT22;5477;48.806;9.154;2022-10-30T08:10:20;15.00;99.90
10848;DHT22;5477;48.806;9.154;2022-10-30T08:12:48;15.10;99.90
10848;DHT22;5477;48.806;9.154;2022-10-30T08:15:16;15.30;99.90
10848;DHT22;5477;48.806;9.154;2022-10-30T08:17:46;15.60;99.90
10848;DHT22;5477;48.806;9.154;2022-10-30T08:20:17;15.70;99.90
10848;DHT22;5477;48.806;9.154;2022-10-30T08:22:47;15.90;99.90
10848;DHT22;5477;48.806;9.154;2022-10-30T08:25:22;16.00;99.90
10848;DHT22;5477;48.806;9.154;2022-10-30T08:27:53;16.20;99.90
10848;DHT22;5477;48.806;9.154;2022-10-30T08:30:25;16.20;99.90
10848;DHT22;5477;48.806;9.154;2022-10-30T08:32:59;16.20;99.90
10848;DHT22;5477;48.806;9.154;2022-10-30T08:35:47;16.30;99.90
10848;DHT22;5477;48.806;9.154;2022-10-30T08:38:16;16.30;99.90
10848;DHT22;5477;48.806;9.154;2022-10-30T08:40:51;16.30;99.90
10848;DHT22;5477;48.806;9.154;2022-10-30T08:43:19;16.30;99.90
10848;DHT22;5477;48.806;9.154;2022-10-30T08:45:49;16.30;99.90
10848;DHT22;5477;48.806;9.154;2022-10-30T08:48:19;16.40;99.90
10848;DHT22;5477;48.806;9.154;2022-10-30T08:50:47;16.40;99.90
10848;DHT22;5477;48.806;9.154;2022-10-30T08:53:22;16.40;99.90
10848;DHT22;5477;48.806;9.154;2022-10-30T08:55:53;16.40;99.90
10848;DHT22;5477;48.806;9.154;2022-10-30T08:58:27;16.50;99.90
10848;DHT22;5477;48.806;9.154;2022-10-30T09:00:56;16.50;99.90
10848;DHT22;5477;48.806;9.154;2022-10-30T09:03:46;16.60;99.90
10848;DHT22;5477;48.806;9.154;2022-10-30T09:06:51;16.60;99.90
10848;DHT22;5477;48.806;9.154;2022-10-30T09:09:38;16.80;99.90
10848;DHT22;5477;48.806;9.154;2022-10-30T09:12:08;16.80;99.90
10848;DHT22;5477;48.806;9.154;2022-10-30T09:14:41;16.90;99.90
10848;DHT22;5477;48.806;9.154;2022-10-30T09:17:10;17.00;99.90
10848;DHT22;5477;48.806;9.154;2022-10-30T09:19:43;17.00;99.90
10848;DHT22;5477;48.806;9.154;2022-10-30T09:22:24;17.10;99.90
10848;DHT22;5477;48.806;9.154;2022-10-30T09:24:52;17.20;99.90
10848;DHT22;5477;48.806;9.154;2022-10-30T09:27:41;17.30;99.90
10848;DHT22;5477;48.806;9.154;2022-10-30T09:30:14;17.40;99.90
10848;DHT22;5477;48.806;9.154;2022-10-30T09:32:45;17.40;99.90
10848;DHT22;5477;48.806;9.154;2022-10-30T09:35:23;17.50;99.90
10848;DHT22;5477;48.806;9.154;2022-10-30T09:37:51;17.60;99.90
10848;DHT22;5477;48.806;9.154;2022-10-30T09:40:22;17.70;99.90
10848;DHT22;5477;48.806;9.154;2022-10-30T09:43:01;17.70;99.90
10848;DHT22;5477;48.806;9.154;2022-10-30T09:46:01;17.70;99.90
10848;DHT22;5477;48.806;9.154;2022-10-30T09:54:38;18.00;99.90
10848;DHT22;5477;48.806;9.154;2022-10-30T09:57:17;18.20;99.90
10848;DHT22;5477;48.806;9.154;2022-10-30T09:59:57;18.40;99.90
10848;DHT22;5477;48.806;9.154;2022-10-30T10:02:33;18.70;99.90
10848;DHT22;5477;48.806;9.154;2022-10-30T10:05:06;19.20;99.90
10848;DHT22;5477;48.806;9.154;2022-10-30T10:08:02;19.80;99.90
10848;DHT22;5477;48.806;9.154;2022-10-30T10:10:52;20.60;99.90
10848;DHT22;5477;48.806;9.154;2022-10-30T10:13:32;21.40;99.90
10848;DHT22;5477;48.806;9.154;2022-10-30T10:16:11;22.10;99.90
10848;DHT22;5477;48.806;9.154;2022-10-30T10:18:44;22.60;99.90
10848;DHT22;5477;48.806;9.154;2022-10-30T10:21:21;23.10;99.90
10848;DHT22;5477;48.806;9.154;2022-10-30T10:23:51;23.60;99.90
10848;DHT22;5477;48.806;9.154;2022-10-30T10:26:29;23.90;99.90
10848;DHT22;5477;48.806;9.154;2022-10-30T10:29:26;24.20;99.90
10848;DHT22;5477;48.806;9.154;2022-10-30T10:38:00;25.60;99.90
10848;DHT22;5477;48.806;9.154;2022-10-30T10:40:43;26.00;99.90
10848;DHT22;5477;48.806;9.154;2022-10-30T10:43:21;26.10;99.90
10848;DHT22;5477;48.806;9.154;2022-10-30T10:45:57;26.10;99.90
10848;DHT22;5477;48.806;9.154;2022-10-30T10:48:51;26.50;99.90
10848;DHT22;5477;48.806;9.154;2022-10-30T10:51:25;26.70;99.90
10848;DHT22;5477;48.806;9.154;2022-10-30T10:53:59;26.90;99.70
10848;DHT22;5477;48.806;9.154;2022-10-30T10:56:31;27.10;98.90
10848;DHT22;5477;48.806;9.154;2022-10-30T10:59:02;27.10;98.60
10848;DHT22;5477;48.806;9.154;2022-10-30T11:01:36;27.40;98.30
10848;DHT22;5477;48.806;9.154;2022-10-30T11:04:12;27.60;97.90
10848;DHT22;5477;48.806;9.154;2022-10-30T11:06:45;27.50;97.60
10848;DHT22;5477;48.806;9.154;2022-10-30T11:09:16;27.60;97.70
10848;DHT22;5477;48.806;9.154;2022-10-30T11:11:45;27.70;97.10
10848;DHT22;5477;48.806;9.154;2022-10-30T11:14:17;27.70;96.80
10848;DHT22;5477;48.806;9.154;2022-10-30T11:16:57;27.70;96.70
10848;DHT22;5477;48.806;9.154;2022-10-30T11:19:30;27.90;96.50
10848;DHT22;5477;48.806;9.154;2022-10-30T11:22:00;28.10;95.90
10848;DHT22;5477;48.806;9.154;2022-10-30T11:24:30;28.20;95.60
10848;DHT22;5477;48.806;9.154;2022-10-30T11:27:14;28.50;94.80
10848;DHT22;5477;48.806;9.154;2022-10-30T11:29:50;28.70;94.30
10848;DHT22;5477;48.806;9.154;2022-10-30T11:32:20;28.90;93.80
10848;DHT22;5477;48.806;9.154;2022-10-30T11:35:01;28.90;93.10
10848;DHT22;5477;48.806;9.154;2022-10-30T11:37:30;29.00;92.70
10848;DHT22;5477;48.806;9.154;2022-10-30T11:40:04;29.00;92.10
10848;DHT22;5477;48.806;9.154;2022-10-30T11:42:33;29.00;91.90
10848;DHT22;5477;48.806;9.154;2022-10-30T11:45:02;29.10;91.30
10848;DHT22;5477;48.806;9.154;2022-10-30T11:47:33;29.20;91.00
10848;DHT22;5477;48.806;9.154;2022-10-30T11:50:16;29.40;90.70
10848;DHT22;5477;48.806;9.154;2022-10-30T11:52:45;29.30;90.30
10848;DHT22;5477;48.806;9.154;2022-10-30T11:55:17;29.00;90.10
10848;DHT22;5477;48.806;9.154;2022-10-30T11:57:48;28.50;90.50
10848;DHT22;5477;48.806;9.154;2022-10-30T12:00:19;28.10;90.90
10848;DHT22;5477;48.806;9.154;2022-10-30T12:02:49;27.70;91.60
10848;DHT22;5477;48.806;9.154;2022-10-30T12:05:34;27.60;91.80
10848;DHT22;5477;48.806;9.154;2022-10-30T12:08:17;27.30;92.00
10848;DHT22;5477;48.806;9.154;2022-10-30T12:10:53;26.90;92.40
10848;DHT22;5477;48.806;9.154;2022-10-30T12:13:22;26.60;92.90
10848;DHT22;5477;48.806;9.154;2022-10-30T12:16:08;26.50;93.50
10848;DHT22;5477;48.806;9.154;2022-10-30T12:18:38;26.40;94.00
10848;DHT22;5477;48.806;9.154;2022-10-30T12:21:07;26.30;94.20
10848;DHT22;5477;48.806;9.154;2022-10-30T12:23:36;26.00;94.50
10848;DHT22;5477;48.806;9.154;2022-10-30T12:26:09;25.70;95.00
10848;DHT22;5477;48.806;9.154;2022-10-30T12:28:38;25.80;95.40
10848;DHT22;5477;48.806;9.154;2022-10-30T12:31:12;25.80;95.60
10848;DHT22;5477;48.806;9.154;2022-10-30T12:33:44;25.70;95.80
10848;DHT22;5477;48.806;9.154;2022-10-30T12:36:19;25.60;96.10
10848;DHT22;5477;48.806;9.154;2022-10-30T12:38:50;25.50;96.50
10848;DHT22;5477;48.806;9.154;2022-10-30T12:41:21;25.40;96.60
10848;DHT22;5477;48.806;9.154;2022-10-30T12:43:56;25.30;96.50
10848;DHT22;5477;48.806;9.154;2022-10-30T12:46:30;25.10;96.90
10848;DHT22;5477;48.806;9.154;2022-10-30T12:49:08;25.00;97.40
10848;DHT22;5477;48.806;9.154;2022-10-30T12:51:45;24.90;97.70
10848;DHT22;5477;48.806;9.154;2022-10-30T12:54:19;25.00;98.10
10848;DHT22;5477;48.806;9.154;2022-10-30T12:56:54;25.00;98.50
10848;DHT22;5477;48.806;9.154;2022-10-30T12:59:35;24.80;99.50
10848;DHT22;5477;48.806;9.154;2022-10-30T13:02:14;24.80;99.90
10848;DHT22;5477;48.806;9.154;2022-10-30T13:04:44;24.80;99.90
10848;DHT22;5477;48.806;9.154;2022-10-30T13:07:21;24.70;99.90
10848;DHT22;5477;48.806;9.154;2022-10-30T13:10:01;24.70;99.90
10848;DHT22;5477;48.806;9.154;2022-10-30T13:12:33;24.60;99.90
10848;DHT22;5477;48.806;9.154;2022-10-30T13:15:03;24.60;99.90
10848;DHT22;5477;48.806;9.154;2022-10-30T13:17:33;24.60;99.90
10848;DHT22;5477;48.806;9.154;2022-10-30T13:20:00;24.60;99.90
10848;DHT22;5477;48.806;9.154;2022-10-30T13:22:34;24.60;99.90
10848;DHT22;5477;48.806;9.154;2022-10-30T13:25:12;24.60;99.90
10848;DHT22;5477;48.806;9.154;2022-10-30T13:27:46;24.50;99.90
10848;DHT22;5477;48.806;9.154;2022-10-30T13:30:17;24.60;99.90
10848;DHT22;5477;48.806;9.154;2022-10-30T13:32:58;24.60;99.90
10848;DHT22;5477;48.806;9.154;2022-10-30T13:35:34;24.50;99.90
10848;DHT22;5477;48.806;9.154;2022-10-30T13:38:17;24.50;99.90
10848;DHT22;5477;48.806;9.154;2022-10-30T13:40:51;24.40;99.90
10848;DHT22;5477;48.806;9.154;2022-10-30T13:43:26;24.40;99.90
10848;DHT22;5477;48.806;9.154;2022-10-30T13:46:10;24.30;99.90
10848;DHT22;5477;48.806;9.154;2022-10-30T13:48:55;24.10;99.90
10848;DHT22;5477;48.806;9.154;2022-10-30T13:51:35;24.10;99.90
10848;DHT22;5477;48.806;9.154;2022-10-30T13:54:14;24.00;99.90
10848;DHT22;5477;48.806;9.154;2022-10-30T13:56:44;23.90;99.90
10848;DHT22;5477;48.806;9.154;2022-10-30T13:59:25;24.00;99.90
10848;DHT22;5477;48.806;9.154;2022-10-30T14:02:00;23.90;99.90
10848;DHT22;5477;48.806;9.154;2022-10-30T14:04:34;24.00;99.90
10848;DHT22;5477;48.806;9.154;2022-10-30T14:07:15;24.00;99.90
10848;DHT22;5477;48.806;9.154;2022-10-30T14:09:55;24.10;99.90
10848;DHT22;5477;48.806;9.154;2022-10-30T14:12:48;24.10;99.90
10848;DHT22;5477;48.806;9.154;2022-10-30T14:15:26;24.10;99.90
10848;DHT22;5477;48.806;9.154;2022-10-30T14:18:22;24.10;99.90
10848;DHT22;5477;48.806;9.154;2022-10-30T14:20:52;24.10;99.90
10848;DHT22;5477;48.806;9.154;2022-10-30T14:23:22;24.10;99.90
10848;DHT22;5477;48.806;9.154;2022-10-30T14:26:16;24.10;99.90
10848;DHT22;5477;48.806;9.154;2022-10-30T14:28:47;24.10;99.90
10848;DHT22;5477;48.806;9.154;2022-10-30T14:31:17;24.00;99.90
10848;DHT22;5477;48.806;9.154;2022-10-30T14:33:50;24.00;99.90
10848;DHT22;5477;48.806;9.154;2022-10-30T14:36:20;24.00;99.90
10848;DHT22;5477;48.806;9.154;2022-10-30T14:38:54;23.90;99.90
10848;DHT22;5477;48.806;9.154;2022-10-30T14:41:37;23.80;99.90
10848;DHT22;5477;48.806;9.154;2022-10-30T14:47:13;23.70;99.90
10848;DHT22;5477;48.806;9.154;2022-10-30T14:49:51;23.50;99.90
10848;DHT22;5477;48.806;9.154;2022-10-30T14:52:36;23.30;99.90
10848;DHT22;5477;48.806;9.154;2022-10-30T14:55:23;23.00;99.90
10848;DHT22;5477;48.806;9.154;2022-10-30T14:58:13;22.70;99.90
10848;DHT22;5477;48.806;9.154;2022-10-30T15:00:42;22.50;99.90
10848;DHT22;5477;48.806;9.154;2022-10-30T15:03:30;22.40;99.90
10848;DHT22;5477;48.806;9.154;2022-10-30T15:06:10;22.30;99.90
10848;DHT22;5477;48.806;9.154;2022-10-30T15:08:56;22.20;99.90
10848;DHT22;5477;48.806;9.154;2022-10-30T15:11:41;22.10;99.90
10848;DHT22;5477;48.806;9.154;2022-10-30T15:14:19;22.00;99.90
10848;DHT22;5477;48.806;9.154;2022-10-30T15:17:21;21.80;99.90
10848;DHT22;5477;48.806;9.154;2022-10-30T15:19:50;21.60;99.90
10848;DHT22;5477;48.806;9.154;2022-10-30T15:22:20;21.50;99.90
10848;DHT22;5477;48.806;9.154;2022-10-30T15:24:49;21.40;99.90
10848;DHT22;5477;48.806;9.154;2022-10-30T15:27:19;21.30;99.90
10848;DHT22;5477;48.806;9.154;2022-10-30T15:29:52;21.20;99.90
10848;DHT22;5477;48.806;9.154;2022-10-30T15:32:22;21.00;99.90
10848;DHT22;5477;48.806;9.154;2022-10-30T15:34:56;20.80;99.90
10848;DHT22;5477;48.806;9.154;2022-10-30T15:37:26;20.70;99.90
10848;DHT22;5477;48.806;9.154;2022-10-30T15:40:13;20.60;99.90
10848;DHT22;5477;48.806;9.154;2022-10-30T15:42:43;20.50;99.90
10848;DHT22;5477;48.806;9.154;2022-10-30T15:45:17;20.40;99.90
10848;DHT22;5477;48.806;9.154;2022-10-30T15:47:50;20.40;99.90
10848;DHT22;5477;48.806;9.154;2022-10-30T15:50:20;20.30;99.90
10848;DHT22;5477;48.806;9.154;2022-10-30T15:52:49;20.10;99.90
10848;DHT22;5477;48.806;9.154;2022-10-30T15:55:23;20.00;99.90
10848;DHT22;5477;48.806;9.154;2022-10-30T15:57:53;19.80;99.90
10848;DHT22;5477;48.806;9.154;2022-10-30T16:00:33;19.70;99.90
10848;DHT22;5477;48.806;9.154;2022-10-30T16:03:04;19.50;99.90
10848;DHT22;5477;48.806;9.154;2022-10-30T16:05:32;19.40;99.90
10848;DHT22;5477;48.806;9.154;2022-10-30T16:08:03;19.30;99.90
10848;DHT22;5477;48.806;9.154;2022-10-30T16:10:33;19.20;99.90
10848;DHT22;5477;48.806;9.154;2022-10-30T16:13:02;19.10;99.90
10848;DHT22;5477;48.806;9.154;2022-10-30T16:15:34;19.00;99.90
10848;DHT22;5477;48.806;9.154;2022-10-30T16:18:16;18.90;99.90
10848;DHT22;5477;48.806;9.154;2022-10-30T16:20:48;18.80;99.90
10848;DHT22;5477;48.806;9.154;2022-10-30T16:23:17;18.80;99.90
10848;DHT22;5477;48.806;9.154;2022-10-30T16:25:47;18.70;99.90
10848;DHT22;5477;48.806;9.154;2022-10-30T16:28:24;18.50;99.90
10848;DHT22;5477;48.806;9.154;2022-10-30T16:30:54;18.30;99.90
10848;DHT22;5477;48.806;9.154;2022-10-30T16:33:26;18.30;99.90
10848;DHT22;5477;48.806;9.154;2022-10-30T16:35:55;18.10;99.90
10848;DHT22;5477;48.806;9.154;2022-10-30T16:38:24;18.00;99.90
10848;DHT22;5477;48.806;9.154;2022-10-30T16:40:53;18.00;99.90
10848;DHT22;5477;48.806;9.154;2022-10-30T16:43:27;17.90;99.90